sensor_id;sensor_type;location;lat;lon;timestamp;pressure;altitude;pressure_sealevel;temperature;humidity
66627;BME280;53498;50.422;14.912;2022-11-13T00:00:04;100610.69;;;3.31;100.00
66627;BME280;53498;50.422;14.912;2022-11-13T00:02:50;100628.63;;;3.29;100.00
66627;BME280;53498;50.422;14.912;2022-11-13T00:05:15;100621.31;;;3.37;100.00
66627;BME280;53498;50.422;14.912;2022-11-13T00:07:41;100612.88;;;3.23;100.00
66627;BME280;53498;50.422;14.912;2022-11-13T00:10:07;100615.38;;;3.07;100.00
66627;BME280;53498;50.422;14.912;2022-11-13T00:12:32;100613.88;;;3.10;100.00
66627;BME280;53498;50.422;14.912;2022-11-13T00:15:02;100611.88;;;3.05;100.00
66627;BME280;53498;50.422;14.912;2022-11-13T00:17:27;100602.19;;;3.00;100.00
66627;BME280;53498;50.422;14.912;2022-11-13T00:19:53;100615.19;;;3.18;100.00
66627;BME280;53498;50.422;14.912;2022-11-13T00:22:19;100605.78;;;3.35;100.00
66627;BME280;53498;50.422;14.912;2022-11-13T00:24:45;100600.47;;;3.16;100.00
66627;BME280;53498;50.422;14.912;2022-11-13T00:27:11;100602.91;;;3.29;100.00
66627;BME280;53498;50.422;14.912;2022-11-13T00:29:36;100610.16;;;3.36;100.00
66627;BME280;53498;50.422;14.912;2022-11-13T00:32:02;100611.03;;;3.53;100.00
66627;BME280;53498;50.422;14.912;2022-11-13T00:34:28;100613.94;;;3.43;100.00
66627;BME280;53498;50.422;14.912;2022-11-13T00:36:53;100614.88;;;3.29;100.00
66627;BME280;53498;50.422;14.912;2022-11-13T00:39:19;100614.00;;;3.44;100.00
66627;BME280;53498;50.422;14.912;2022-11-13T00:41:44;100606.59;;;3.18;100.00
66627;BME280;53498;50.422;14.912;2022-11-13T00:44:10;100596.38;;;3.19;100.00
66627;BME280;53498;50.422;14.912;2022-11-13T00:46:35;100597.88;;;2.99;100.00
66627;BME280;53498;50.422;14.912;2022-11-13T00:49:01;100602.09;;;3.14;100.00
66627;BME280;53498;50.422;14.912;2022-11-13T00:51:26;100596.03;;;3.13;100.00
66627;BME280;53498;50.422;14.912;2022-11-13T00:53:52;100595.75;;;3.23;100.00
66627;BME280;53498;50.422;14.912;2022-11-13T00:56:18;100594.59;;;3.02;100.00
66627;BME280;53498;50.422;14.912;2022-11-13T00:58:43;100599.91;;;3.05;100.00
66627;BME280;53498;50.422;14.912;2022-11-13T01:01:14;100592.63;;;3.29;100.00
66627;BME280;53498;50.422;14.912;2022-11-13T01:03:40;100597.31;;;3.05;100.00
66627;BME280;53498;50.422;14.912;2022-11-13T01:06:19;100593.22;;;3.09;100.00
66627;BME280;53498;50.422;14.912;2022-11-13T01:08:45;100582.72;;;3.20;100.00
66627;BME280;53498;50.422;14.912;2022-11-13T01:11:22;100586.19;;;2.90;100.00
66627;BME280;53498;50.422;14.912;2022-11-13T01:13:49;100587.56;;;2.83;100.00
66627;BME280;53498;50.422;14.912;2022-11-13T01:16:17;100574.38;;;2.77;100.00
66627;BME280;53498;50.422;14.912;2022-11-13T01:18:43;100582.06;;;2.77;100.00
66627;BME280;53498;50.422;14.912;2022-11-13T01:21:20;100575.34;;;2.79;100.00
66627;BME280;53498;50.422;14.912;2022-11-13T01:23:46;100576.63;;;2.87;100.00
66627;BME280;53498;50.422;14.912;2022-11-13T01:26:21;100578.47;;;2.73;100.00
66627;BME280;53498;50.422;14.912;2022-11-13T01:28:46;100568.44;;;2.94;100.00
66627;BME280;53498;50.422;14.912;2022-11-13T01:31:15;100573.16;;;3.18;100.00
66627;BME280;53498;50.422;14.912;2022-11-13T01:33:43;100577.16;;;3.13;100.00
66627;BME280;53498;50.422;14.912;2022-11-13T01:36:17;100576.59;;;3.02;100.00
66627;BME280;53498;50.422;14.912;2022-11-13T01:38:44;100579.13;;;3.17;100.00
66627;BME280;53498;50.422;14.912;2022-11-13T01:41:31;100578.28;;;3.01;100.00
66627;BME280;53498;50.422;14.912;2022-11-13T01:43:58;100581.63;;;3.00;100.00
66627;BME280;53498;50.422;14.912;2022-11-13T01:46:31;100571.81;;;2.93;100.00
66627;BME280;53498;50.422;14.912;2022-11-13T01:51:32;100573.34;;;2.90;100.00
66627;BME280;53498;50.422;14.912;2022-11-13T01:54:02;100564.44;;;2.99;100.00
66627;BME280;53498;50.422;14.912;2022-11-13T01:56:29;100569.75;;;3.03;100.00
66627;BME280;53498;50.422;14.912;2022-11-13T01:59:12;100553.28;;;2.99;100.00
66627;BME280;53498;50.422;14.912;2022-11-13T02:01:40;100558.56;;;2.86;100.00
66627;BME280;53498;50.422;14.912;2022-11-13T02:04:05;100550.44;;;2.78;100.00
66627;BME280;53498;50.422;14.912;2022-11-13T02:06:43;100551.19;;;2.92;100.00
66627;BME280;53498;50.422;14.912;2022-11-13T02:09:22;100549.91;;;3.00;100.00
66627;BME280;53498;50.422;14.912;2022-11-13T02:11:49;100553.47;;;3.18;100.00
66627;BME280;53498;50.422;14.912;2022-11-13T02:14:16;100546.78;;;3.38;100.00
66627;BME280;53498;50.422;14.912;2022-11-13T02:16:45;100541.47;;;2.86;100.00
66627;BME280;53498;50.422;14.912;2022-11-13T02:19:18;100536.13;;;2.67;100.00
66627;BME280;53498;50.422;14.912;2022-11-13T02:22:00;100541.53;;;2.88;100.00
66627;BME280;53498;50.422;14.912;2022-11-13T02:24:30;100533.53;;;2.98;100.00
66627;BME280;53498;50.422;14.912;2022-11-13T02:27:00;100528.16;;;3.10;100.00
66627;BME280;53498;50.422;14.912;2022-11-13T02:29:27;100528.97;;;3.09;100.00
66627;BME280;53498;50.422;14.912;2022-11-13T02:31:52;100526.22;;;3.22;100.00
66627;BME280;53498;50.422;14.912;2022-11-13T02:34:18;100524.03;;;3.13;100.00
66627;BME280;53498;50.422;14.912;2022-11-13T02:36:43;100526.72;;;3.15;100.00
66627;BME280;53498;50.422;14.912;2022-11-13T02:39:10;100517.34;;;2.84;100.00
66627;BME280;53498;50.422;14.912;2022-11-13T02:41:36;100515.28;;;2.93;100.00
66627;BME280;53498;50.422;14.912;2022-11-13T02:44:04;100514.63;;;2.81;100.00
66627;BME280;53498;50.422;14.912;2022-11-13T02:46:29;100515.34;;;2.78;100.00
66627;BME280;53498;50.422;14.912;2022-11-13T02:48:55;100507.75;;;2.65;100.00
66627;BME280;53498;50.422;14.912;2022-11-13T02:51:21;100507.28;;;2.72;100.00
66627;BME280;53498;50.422;14.912;2022-11-13T02:53:47;100502.91;;;2.70;100.00
66627;BME280;53498;50.422;14.912;2022-11-13T02:56:12;100502.28;;;3.07;100.00
66627;BME280;53498;50.422;14.912;2022-11-13T02:58:38;100499.78;;;2.92;100.00
66627;BME280;53498;50.422;14.912;2022-11-13T03:01:03;100506.69;;;2.76;100.00
66627;BME280;53498;50.422;14.912;2022-11-13T03:03:29;100501.38;;;2.73;100.00
66627;BME280;53498;50.422;14.912;2022-11-13T03:05:54;100503.78;;;2.87;100.00
66627;BME280;53498;50.422;14.912;2022-11-13T03:08:20;100511.28;;;3.15;100.00
66627;BME280;53498;50.422;14.912;2022-11-13T03:10:46;100511.22;;;3.30;100.00
66627;BME280;53498;50.422;14.912;2022-11-13T03:13:11;100510.47;;;2.83;100.00
66627;BME280;53498;50.422;14.912;2022-11-13T03:15:36;100515.75;;;2.70;100.00
66627;BME280;53498;50.422;14.912;2022-11-13T03:18:04;100508.09;;;2.71;100.00
66627;BME280;53498;50.422;14.912;2022-11-13T03:20:30;100508.75;;;2.67;100.00
66627;BME280;53498;50.422;14.912;2022-11-13T03:22:55;100506.19;;;2.67;100.00
66627;BME280;53498;50.422;14.912;2022-11-13T03:25:21;100505.84;;;2.61;100.00
66627;BME280;53498;50.422;14.912;2022-11-13T03:27:47;100507.59;;;2.62;100.00
66627;BME280;53498;50.422;14.912;2022-11-13T03:30:12;100514.44;;;2.62;100.00
66627;BME280;53498;50.422;14.912;2022-11-13T03:32:38;100512.72;;;2.62;100.00
66627;BME280;53498;50.422;14.912;2022-11-13T03:35:04;100515.34;;;2.47;100.00
66627;BME280;53498;50.422;14.912;2022-11-13T03:37:29;100508.53;;;2.48;100.00
66627;BME280;53498;50.422;14.912;2022-11-13T03:39:55;100512.94;;;2.50;100.00
66627;BME280;53498;50.422;14.912;2022-11-13T03:42:23;100517.13;;;2.48;100.00
66627;BME280;53498;50.422;14.912;2022-11-13T03:44:49;100519.22;;;2.55;100.00
66627;BME280;53498;50.422;14.912;2022-11-13T03:47:14;100515.16;;;2.44;100.00
66627;BME280;53498;50.422;14.912;2022-11-13T03:49:48;100518.72;;;2.46;100.00
66627;BME280;53498;50.422;14.912;2022-11-13T03:52:14;100515.63;;;2.37;100.00
66627;BME280;53498;50.422;14.912;2022-11-13T03:54:39;100511.09;;;2.48;100.00
66627;BME280;53498;50.422;14.912;2022-11-13T03:57:05;100503.34;;;2.63;100.00
66627;BME280;53498;50.422;14.912;2022-11-13T03:59:31;100503.13;;;2.74;100.00
66627;BME280;53498;50.422;14.912;2022-11-13T04:01:56;100511.97;;;2.80;100.00
66627;BME280;53498;50.422;14.912;2022-11-13T04:04:21;100504.38;;;2.66;100.00
66627;BME280;53498;50.422;14.912;2022-11-13T04:06:47;100503.13;;;2.74;100.00
66627;BME280;53498;50.422;14.912;2022-11-13T04:09:13;100498.03;;;2.60;100.00
66627;BME280;53498;50.422;14.912;2022-11-13T04:11:38;100494.84;;;2.64;100.00
66627;BME280;53498;50.422;14.912;2022-11-13T04:14:04;100491.59;;;2.51;100.00
66627;BME280;53498;50.422;14.912;2022-11-13T04:16:35;100497.91;;;2.73;100.00
66627;BME280;53498;50.422;14.912;2022-11-13T04:19:01;100500.72;;;2.46;100.00
66627;BME280;53498;50.422;14.912;2022-11-13T04:21:26;100502.59;;;2.49;100.00
66627;BME280;53498;50.422;14.912;2022-11-13T04:23:52;100503.31;;;2.46;100.00
66627;BME280;53498;50.422;14.912;2022-11-13T04:26:18;100501.00;;;2.82;100.00
66627;BME280;53498;50.422;14.912;2022-11-13T04:28:43;100496.69;;;2.66;100.00
66627;BME280;53498;50.422;14.912;2022-11-13T04:31:09;100486.91;;;2.44;100.00
66627;BME280;53498;50.422;14.912;2022-11-13T04:33:34;100490.25;;;2.58;100.00
66627;BME280;53498;50.422;14.912;2022-11-13T04:36:00;100489.63;;;2.62;100.00
66627;BME280;53498;50.422;14.912;2022-11-13T04:38:26;100483.25;;;2.55;100.00
66627;BME280;53498;50.422;14.912;2022-11-13T04:40:51;100471.84;;;2.50;100.00
66627;BME280;53498;50.422;14.912;2022-11-13T04:43:40;100476.03;;;2.48;100.00
66627;BME280;53498;50.422;14.912;2022-11-13T04:46:06;100489.75;;;2.49;100.00
66627;BME280;53498;50.422;14.912;2022-11-13T04:48:31;100485.16;;;2.91;100.00
66627;BME280;53498;50.422;14.912;2022-11-13T04:50:57;100490.22;;;2.89;100.00
66627;BME280;53498;50.422;14.912;2022-11-13T04:53:23;100494.22;;;2.84;100.00
66627;BME280;53498;50.422;14.912;2022-11-13T04:55:48;100488.91;;;2.81;100.00
66627;BME280;53498;50.422;14.912;2022-11-13T04:58:16;100487.66;;;2.89;100.00
66627;BME280;53498;50.422;14.912;2022-11-13T05:00:41;100483.78;;;2.81;100.00
66627;BME280;53498;50.422;14.912;2022-11-13T05:03:07;100486.56;;;2.69;100.00
66627;BME280;53498;50.422;14.912;2022-11-13T05:05:32;100488.34;;;2.54;100.00
66627;BME280;53498;50.422;14.912;2022-11-13T05:07:58;100493.56;;;2.72;100.00
66627;BME280;53498;50.422;14.912;2022-11-13T05:10:23;100489.75;;;2.96;100.00
66627;BME280;53498;50.422;14.912;2022-11-13T05:12:49;100489.75;;;2.96;100.00
66627;BME280;53498;50.422;14.912;2022-11-13T05:15:14;100488.31;;;3.01;100.00
66627;BME280;53498;50.422;14.912;2022-11-13T05:17:40;100487.28;;;3.14;100.00
66627;BME280;53498;50.422;14.912;2022-11-13T05:20:06;100484.81;;;2.85;100.00
66627;BME280;53498;50.422;14.912;2022-11-13T05:22:31;100493.34;;;2.84;100.00
66627;BME280;53498;50.422;14.912;2022-11-13T05:24:57;100495.53;;;3.09;100.00
66627;BME280;53498;50.422;14.912;2022-11-13T05:27:22;100496.78;;;2.68;100.00
66627;BME280;53498;50.422;14.912;2022-11-13T05:29:48;100498.09;;;2.76;100.00
66627;BME280;53498;50.422;14.912;2022-11-13T05:32:13;100496.41;;;2.76;100.00
66627;BME280;53498;50.422;14.912;2022-11-13T05:34:39;100500.81;;;2.79;100.00
66627;BME280;53498;50.422;14.912;2022-11-13T05:37:04;100499.84;;;2.77;100.00
66627;BME280;53498;50.422;14.912;2022-11-13T05:39:30;100498.69;;;2.72;100.00
66627;BME280;53498;50.422;14.912;2022-11-13T05:41:55;100503.41;;;2.79;100.00
66627;BME280;53498;50.422;14.912;2022-11-13T05:44:27;100501.59;;;2.78;100.00
66627;BME280;53498;50.422;14.912;2022-11-13T05:46:52;100503.06;;;2.73;100.00
66627;BME280;53498;50.422;14.912;2022-11-13T05:49:18;100501.94;;;2.84;100.00
66627;BME280;53498;50.422;14.912;2022-11-13T05:51:43;100500.50;;;2.73;100.00
66627;BME280;53498;50.422;14.912;2022-11-13T05:54:10;100489.78;;;2.65;100.00
66627;BME280;53498;50.422;14.912;2022-11-13T05:56:36;100488.81;;;2.63;100.00
66627;BME280;53498;50.422;14.912;2022-11-13T05:59:03;100484.66;;;2.65;100.00
66627;BME280;53498;50.422;14.912;2022-11-13T06:01:30;100492.19;;;2.62;100.00
66627;BME280;53498;50.422;14.912;2022-11-13T06:03:57;100485.63;;;2.67;100.00
66627;BME280;53498;50.422;14.912;2022-11-13T06:06:25;100483.78;;;2.81;100.00
66627;BME280;53498;50.422;14.912;2022-11-13T06:08:51;100483.44;;;2.75;100.00
66627;BME280;53498;50.422;14.912;2022-11-13T06:11:22;100479.78;;;2.86;100.00
66627;BME280;53498;50.422;14.912;2022-11-13T06:13:48;100471.19;;;3.18;100.00
66627;BME280;53498;50.422;14.912;2022-11-13T06:16:20;100476.81;;;2.95;100.00
66627;BME280;53498;50.422;14.912;2022-11-13T06:18:46;100466.44;;;2.93;100.00
66627;BME280;53498;50.422;14.912;2022-11-13T06:21:15;100474.47;;;2.99;100.00
66627;BME280;53498;50.422;14.912;2022-11-13T06:23:41;100477.84;;;3.15;100.00
66627;BME280;53498;50.422;14.912;2022-11-13T06:26:13;100484.47;;;3.26;100.00
66627;BME280;53498;50.422;14.912;2022-11-13T06:28:39;100482.03;;;3.29;100.00
66627;BME280;53498;50.422;14.912;2022-11-13T06:31:11;100479.72;;;3.17;100.00
66627;BME280;53498;50.422;14.912;2022-11-13T06:33:37;100481.56;;;3.20;100.00
66627;BME280;53498;50.422;14.912;2022-11-13T06:36:05;100470.06;;;3.30;100.00
66627;BME280;53498;50.422;14.912;2022-11-13T06:38:32;100477.38;;;3.22;100.00
66627;BME280;53498;50.422;14.912;2022-11-13T06:40:59;100474.63;;;3.19;100.00
66627;BME280;53498;50.422;14.912;2022-11-13T06:43:24;100463.88;;;2.93;100.00
66627;BME280;53498;50.422;14.912;2022-11-13T06:45:50;100461.19;;;2.75;100.00
66627;BME280;53498;50.422;14.912;2022-11-13T06:48:16;100460.50;;;2.94;100.00
66627;BME280;53498;50.422;14.912;2022-11-13T06:50:41;100461.25;;;2.92;100.00
66627;BME280;53498;50.422;14.912;2022-11-13T06:53:07;100466.44;;;2.77;100.00
66627;BME280;53498;50.422;14.912;2022-11-13T06:55:32;100464.09;;;2.82;100.00
66627;BME280;53498;50.422;14.912;2022-11-13T06:57:58;100466.50;;;2.62;100.00
66627;BME280;53498;50.422;14.912;2022-11-13T07:00:23;100459.13;;;2.85;100.00
66627;BME280;53498;50.422;14.912;2022-11-13T07:02:49;100457.84;;;2.60;100.00
66627;BME280;53498;50.422;14.912;2022-11-13T07:05:15;100464.13;;;2.50;100.00
66627;BME280;53498;50.422;14.912;2022-11-13T07:07:41;100469.19;;;2.49;100.00
66627;BME280;53498;50.422;14.912;2022-11-13T07:10:07;100466.97;;;2.55;100.00
66627;BME280;53498;50.422;14.912;2022-11-13T07:12:33;100469.16;;;2.64;100.00
66627;BME280;53498;50.422;14.912;2022-11-13T07:14:58;100468.19;;;2.78;100.00
66627;BME280;53498;50.422;14.912;2022-11-13T07:17:33;100466.09;;;2.54;100.00
66627;BME280;53498;50.422;14.912;2022-11-13T07:19:58;100464.78;;;2.46;100.00
66627;BME280;53498;50.422;14.912;2022-11-13T07:22:24;100456.59;;;2.53;100.00
66627;BME280;53498;50.422;14.912;2022-11-13T07:24:50;100457.56;;;2.55;100.00
66627;BME280;53498;50.422;14.912;2022-11-13T07:27:15;100446.75;;;2.61;100.00
66627;BME280;53498;50.422;14.912;2022-11-13T07:29:40;100449.66;;;2.67;100.00
66627;BME280;53498;50.422;14.912;2022-11-13T07:32:06;100453.75;;;2.64;100.00
66627;BME280;53498;50.422;14.912;2022-11-13T07:34:38;100449.53;;;2.49;100.00
66627;BME280;53498;50.422;14.912;2022-11-13T07:37:03;100443.53;;;2.65;100.00
66627;BME280;53498;50.422;14.912;2022-11-13T07:39:31;100445.56;;;2.71;100.00
66627;BME280;53498;50.422;14.912;2022-11-13T07:41:57;100445.28;;;2.66;100.00
66627;BME280;53498;50.422;14.912;2022-11-13T07:44:22;100446.97;;;2.49;100.00
66627;BME280;53498;50.422;14.912;2022-11-13T07:46:48;100438.56;;;2.52;100.00
66627;BME280;53498;50.422;14.912;2022-11-13T07:49:14;100450.34;;;2.48;100.00
66627;BME280;53498;50.422;14.912;2022-11-13T07:51:39;100453.53;;;2.44;100.00
66627;BME280;53498;50.422;14.912;2022-11-13T07:54:05;100454.50;;;2.46;100.00
66627;BME280;53498;50.422;14.912;2022-11-13T07:56:31;100463.03;;;2.45;100.00
66627;BME280;53498;50.422;14.912;2022-11-13T07:58:56;100459.34;;;2.57;100.00
66627;BME280;53498;50.422;14.912;2022-11-13T08:01:22;100459.94;;;2.67;100.00
66627;BME280;53498;50.422;14.912;2022-11-13T08:03:47;100453.41;;;2.58;100.00
66627;BME280;53498;50.422;14.912;2022-11-13T08:06:13;100450.38;;;2.65;100.00
66627;BME280;53498;50.422;14.912;2022-11-13T08:08:39;100446.94;;;2.81;100.00
66627;BME280;53498;50.422;14.912;2022-11-13T08:11:06;100455.03;;;2.88;100.00
66627;BME280;53498;50.422;14.912;2022-11-13T08:13:33;100450.81;;;2.89;100.00
66627;BME280;53498;50.422;14.912;2022-11-13T08:16:00;100451.75;;;3.07;100.00
66627;BME280;53498;50.422;14.912;2022-11-13T08:18:28;100443.31;;;3.10;100.00
66627;BME280;53498;50.422;14.912;2022-11-13T08:20:54;100448.72;;;2.98;100.00
66627;BME280;53498;50.422;14.912;2022-11-13T08:23:19;100447.00;;;3.15;100.00
66627;BME280;53498;50.422;14.912;2022-11-13T08:25:45;100444.28;;;3.12;100.00
66627;BME280;53498;50.422;14.912;2022-11-13T08:28:11;100456.50;;;2.99;100.00
66627;BME280;53498;50.422;14.912;2022-11-13T08:30:37;100455.25;;;3.25;100.00
66627;BME280;53498;50.422;14.912;2022-11-13T08:33:03;100453.78;;;3.47;100.00
66627;BME280;53498;50.422;14.912;2022-11-13T08:35:29;100451.16;;;3.63;100.00
66627;BME280;53498;50.422;14.912;2022-11-13T08:38:02;100448.41;;;3.77;100.00
66627;BME280;53498;50.422;14.912;2022-11-13T08:40:28;100443.44;;;3.63;100.00
66627;BME280;53498;50.422;14.912;2022-11-13T08:42:58;100448.31;;;3.41;100.00
66627;BME280;53498;50.422;14.912;2022-11-13T08:45:24;100448.06;;;3.53;100.00
66627;BME280;53498;50.422;14.912;2022-11-13T08:47:50;100448.56;;;3.45;100.00
66627;BME280;53498;50.422;14.912;2022-11-13T08:50:16;100441.47;;;3.58;100.00
66627;BME280;53498;50.422;14.912;2022-11-13T08:52:42;100436.19;;;3.72;100.00
66627;BME280;53498;50.422;14.912;2022-11-13T08:55:08;100445.75;;;3.75;100.00
66627;BME280;53498;50.422;14.912;2022-11-13T08:57:33;100456.31;;;3.63;100.00
66627;BME280;53498;50.422;14.912;2022-11-13T08:59:59;100457.31;;;3.49;100.00
66627;BME280;53498;50.422;14.912;2022-11-13T09:02:26;100443.81;;;3.53;100.00
66627;BME280;53498;50.422;14.912;2022-11-13T09:04:52;100442.09;;;3.54;100.00
66627;BME280;53498;50.422;14.912;2022-11-13T09:07:18;100461.59;;;3.48;100.00
66627;BME280;53498;50.422;14.912;2022-11-13T09:09:43;100456.13;;;3.42;100.00
66627;BME280;53498;50.422;14.912;2022-11-13T09:12:09;100455.63;;;3.50;100.00
66627;BME280;53498;50.422;14.912;2022-11-13T09:14:35;100456.88;;;3.40;100.00
66627;BME280;53498;50.422;14.912;2022-11-13T09:17:01;100464.63;;;3.41;100.00
66627;BME280;53498;50.422;14.912;2022-11-13T09:19:26;100451.00;;;3.60;100.00
66627;BME280;53498;50.422;14.912;2022-11-13T09:21:52;100455.91;;;3.72;100.00
66627;BME280;53498;50.422;14.912;2022-11-13T09:24:18;100458.47;;;3.72;100.00
66627;BME280;53498;50.422;14.912;2022-11-13T09:26:44;100464.28;;;3.68;100.00
66627;BME280;53498;50.422;14.912;2022-11-13T09:29:10;100460.63;;;3.81;100.00
66627;BME280;53498;50.422;14.912;2022-11-13T09:31:35;100450.13;;;3.60;100.00
66627;BME280;53498;50.422;14.912;2022-11-13T09:34:03;100457.53;;;3.70;100.00
66627;BME280;53498;50.422;14.912;2022-11-13T09:36:29;100458.78;;;3.78;100.00
66627;BME280;53498;50.422;14.912;2022-11-13T09:38:54;100448.94;;;3.87;100.00
66627;BME280;53498;50.422;14.912;2022-11-13T09:41:24;100453.38;;;3.56;100.00
66627;BME280;53498;50.422;14.912;2022-11-13T09:43:55;100451.00;;;3.42;100.00
66627;BME280;53498;50.422;14.912;2022-11-13T09:52:02;100462.47;;;3.49;100.00
66627;BME280;53498;50.422;14.912;2022-11-13T09:54:30;100448.53;;;3.62;100.00
66627;BME280;53498;50.422;14.912;2022-11-13T09:56:58;100450.59;;;3.69;100.00
66627;BME280;53498;50.422;14.912;2022-11-13T09:59:46;100447.56;;;3.60;100.00
66627;BME280;53498;50.422;14.912;2022-11-13T10:07:41;100449.28;;;3.77;100.00
66627;BME280;53498;50.422;14.912;2022-11-13T10:12:55;100437.97;;;4.09;100.00
66627;BME280;53498;50.422;14.912;2022-11-13T10:15:23;100431.81;;;4.06;100.00
66627;BME280;53498;50.422;14.912;2022-11-13T10:17:54;100431.88;;;3.89;100.00
66627;BME280;53498;50.422;14.912;2022-11-13T10:20:45;100428.56;;;4.10;100.00
66627;BME280;53498;50.422;14.912;2022-11-13T10:23:23;100432.44;;;4.37;100.00
66627;BME280;53498;50.422;14.912;2022-11-13T10:25:50;100426.31;;;4.35;100.00
66627;BME280;53498;50.422;14.912;2022-11-13T10:28:19;100417.00;;;4.57;100.00
66627;BME280;53498;50.422;14.912;2022-11-13T10:30:47;100416.94;;;4.55;100.00
66627;BME280;53498;50.422;14.912;2022-11-13T10:33:17;100412.53;;;4.53;100.00
66627;BME280;53498;50.422;14.912;2022-11-13T10:35:58;100409.66;;;4.47;100.00
66627;BME280;53498;50.422;14.912;2022-11-13T10:38:42;100411.84;;;4.57;100.00
66627;BME280;53498;50.422;14.912;2022-11-13T10:41:14;100399.66;;;4.53;100.00
66627;BME280;53498;50.422;14.912;2022-11-13T10:44:00;100403.47;;;4.61;100.00
66627;BME280;53498;50.422;14.912;2022-11-13T10:46:28;100395.69;;;4.41;100.00
66627;BME280;53498;50.422;14.912;2022-11-13T10:48:55;100398.59;;;4.67;100.00
66627;BME280;53498;50.422;14.912;2022-11-13T10:51:29;100397.53;;;4.63;100.00
66627;BME280;53498;50.422;14.912;2022-11-13T10:53:57;100388.28;;;4.67;100.00
66627;BME280;53498;50.422;14.912;2022-11-13T10:56:27;100386.78;;;4.72;100.00
66627;BME280;53498;50.422;14.912;2022-11-13T10:59:12;100381.56;;;4.90;100.00
66627;BME280;53498;50.422;14.912;2022-11-13T11:01:39;100369.38;;;5.07;100.00
66627;BME280;53498;50.422;14.912;2022-11-13T11:04:09;100361.47;;;5.02;100.00
66627;BME280;53498;50.422;14.912;2022-11-13T11:06:39;100363.38;;;5.27;100.00
66627;BME280;53498;50.422;14.912;2022-11-13T11:11:57;100361.31;;;5.40;100.00
66627;BME280;53498;50.422;14.912;2022-11-13T11:15:02;100358.09;;;5.45;100.00
66627;BME280;53498;50.422;14.912;2022-11-13T11:17:45;100344.13;;;5.61;100.00
66627;BME280;53498;50.422;14.912;2022-11-13T11:23:24;100337.16;;;5.81;100.00
66627;BME280;53498;50.422;14.912;2022-11-13T11:26:22;100332.25;;;5.66;100.00
66627;BME280;53498;50.422;14.912;2022-11-13T11:29:01;100334.97;;;5.69;100.00
66627;BME280;53498;50.422;14.912;2022-11-13T11:31:32;100324.75;;;5.72;100.00
66627;BME280;53498;50.422;14.912;2022-11-13T11:34:20;100315.44;;;5.97;100.00
66627;BME280;53498;50.422;14.912;2022-11-13T11:39:46;100294.13;;;6.26;100.00
66627;BME280;53498;50.422;14.912;2022-11-13T11:47:37;100275.34;;;6.55;100.00
66627;BME280;53498;50.422;14.912;2022-11-13T11:50:04;100267.03;;;6.63;100.00
66627;BME280;53498;50.422;14.912;2022-11-13T11:56:00;100267.34;;;6.72;100.00
66627;BME280;53498;50.422;14.912;2022-11-13T12:01:03;100260.84;;;6.84;100.00
66627;BME280;53498;50.422;14.912;2022-11-13T12:03:41;100250.50;;;6.84;100.00
66627;BME280;53498;50.422;14.912;2022-11-13T12:09:14;100227.00;;;7.03;100.00
66627;BME280;53498;50.422;14.912;2022-11-13T12:11:51;100233.69;;;6.97;100.00
66627;BME280;53498;50.422;14.912;2022-11-13T12:14:43;100231.91;;;6.95;100.00
66627;BME280;53498;50.422;14.912;2022-11-13T12:20:25;100214.00;;;7.27;100.00
66627;BME280;53498;50.422;14.912;2022-11-13T12:23:03;100213.28;;;7.33;100.00
66627;BME280;53498;50.422;14.912;2022-11-13T12:25:37;100209.03;;;7.35;100.00
66627;BME280;53498;50.422;14.912;2022-11-13T12:31:45;100207.53;;;7.41;100.00
66627;BME280;53498;50.422;14.912;2022-11-13T12:34:23;100195.63;;;7.48;100.00
66627;BME280;53498;50.422;14.912;2022-11-13T12:36:50;100196.38;;;7.44;100.00
66627;BME280;53498;50.422;14.912;2022-11-13T12:39:37;100193.88;;;7.47;100.00
66627;BME280;53498;50.422;14.912;2022-11-13T12:42:13;100195.63;;;7.48;100.00
66627;BME280;53498;50.422;14.912;2022-11-13T12:47:44;100185.47;;;7.54;100.00
66627;BME280;53498;50.422;14.912;2022-11-13T12:50:29;100180.56;;;7.63;100.00
66627;BME280;53498;50.422;14.912;2022-11-13T12:53:04;100166.75;;;7.63;100.00
66627;BME280;53498;50.422;14.912;2022-11-13T12:55:33;100169.59;;;7.72;100.00
66627;BME280;53498;50.422;14.912;2022-11-13T12:58:09;100167.88;;;7.73;100.00
66627;BME280;53498;50.422;14.912;2022-11-13T13:00:39;100165.38;;;7.76;100.00
66627;BME280;53498;50.422;14.912;2022-11-13T13:03:26;100161.88;;;7.74;100.00
66627;BME280;53498;50.422;14.912;2022-11-13T13:19:38;100139.56;;;8.09;100.00
66627;BME280;53498;50.422;14.912;2022-11-13T13:22:10;100138.72;;;8.11;100.00
66627;BME280;53498;50.422;14.912;2022-11-13T13:24:37;100134.53;;;8.15;100.00
66627;BME280;53498;50.422;14.912;2022-11-13T13:27:26;100124.88;;;8.09;100.00
66627;BME280;53498;50.422;14.912;2022-11-13T13:29:52;100118.22;;;8.19;100.00
66627;BME280;53498;50.422;14.912;2022-11-13T13:32:35;100127.66;;;8.17;100.00
66627;BME280;53498;50.422;14.912;2022-11-13T13:35:11;100127.91;;;8.26;100.00
66627;BME280;53498;50.422;14.912;2022-11-13T13:40:34;100113.19;;;8.25;100.00
66627;BME280;53498;50.422;14.912;2022-11-13T13:48:36;100111.06;;;8.42;100.00
66627;BME280;53498;50.422;14.912;2022-11-13T13:51:03;100113.81;;;8.48;100.00
66627;BME280;53498;50.422;14.912;2022-11-13T13:53:37;100110.59;;;8.58;100.00
66627;BME280;53498;50.422;14.912;2022-11-13T13:56:03;100108.00;;;8.58;100.00
66627;BME280;53498;50.422;14.912;2022-11-13T13:58:32;100104.63;;;8.61;100.00